ANA765 RJOM-RJFK
Flight info
| Callsign | ANA765 |
|---|---|
| Flight time | 0h 34m |
| Altitude | 220 |
| Route | RJOM/32 IYO2 SHONO Y40 OOITA Y45 HKC |
| Aircraft | B738/M-V/N |
Departure
| Time | 2026-05-01 13:53 |
|---|---|
| Airport | Matsuyama Airport (RJOM) |
Arrival
| Time | 2026-05-01 14:27 |
|---|---|
| Airport | Kagoshima Airport (RJFK) |
| Time | Latitude | Longitude | Altitude | Speed | Heading |
|---|---|---|---|---|---|
| 2026-05-01 13:46 | 33.82838 | 132.70367 | 22 ft | 0 kts | 40° |
| 2026-05-01 13:50 | 33.82832 | 132.70361 | 22 ft | 2 kts | 40° |
| 2026-05-01 13:50 | 33.82822 | 132.70337 | 22 ft | 5 kts | 95° |
| 2026-05-01 13:50 | 33.82851 | 132.70316 | 22 ft | 4 kts | 199° |
| 2026-05-01 13:50 | 33.82805 | 132.70303 | 22 ft | 26 kts | 187° |
| 2026-05-01 13:51 | 33.82612 | 132.70430 | 22 ft | 33 kts | 139° |
| 2026-05-01 13:51 | 33.82465 | 132.70633 | 22 ft | 30 kts | 131° |
| 2026-05-01 13:51 | 33.82318 | 132.70807 | 20 ft | 28 kts | 135° |
| 2026-05-01 13:51 | 33.82207 | 132.70979 | 19 ft | 25 kts | 129° |
| 2026-05-01 13:52 | 33.82075 | 132.70999 | 19 ft | 17 kts | 202° |
| 2026-05-01 13:52 | 33.82079 | 132.70874 | 19 ft | 28 kts | 306° |
| 2026-05-01 13:52 | 33.82333 | 132.70508 | 22 ft | 94 kts | 311° |
| 2026-05-01 13:52 | 33.82919 | 132.69690 | 13 ft | 164 kts | 311° |
| 2026-05-01 13:53 | 33.83727 | 132.68608 | 650 ft | 178 kts | 310° |
| 2026-05-01 13:53 | 33.84286 | 132.65897 | 2348 ft | 182 kts | 249° |
| 2026-05-01 13:53 | 33.83555 | 132.64722 | 3201 ft | 186 kts | 219° |
| 2026-05-01 13:54 | 33.82499 | 132.63789 | 3982 ft | 196 kts | 218° |
| 2026-05-01 13:54 | 33.81342 | 132.62677 | 4342 ft | 232 kts | 222° |
| 2026-05-01 13:54 | 33.80169 | 132.61267 | 4995 ft | 247 kts | 232° |
| 2026-05-01 13:54 | 33.79119 | 132.59582 | 5695 ft | 259 kts | 233° |
| 2026-05-01 13:55 | 33.77987 | 132.57854 | 6537 ft | 266 kts | 232° |
| 2026-05-01 13:55 | 33.76831 | 132.56131 | 7385 ft | 272 kts | 232° |
| 2026-05-01 13:55 | 33.75624 | 132.54340 | 8258 ft | 276 kts | 232° |
| 2026-05-01 13:55 | 33.74420 | 132.52559 | 9102 ft | 280 kts | 232° |
| 2026-05-01 13:56 | 33.73185 | 132.50738 | 9938 ft | 284 kts | 232° |
| 2026-05-01 13:56 | 33.71913 | 132.48865 | 10394 ft | 302 kts | 232° |
| 2026-05-01 13:56 | 33.70526 | 132.46820 | 10633 ft | 326 kts | 232° |
| 2026-05-01 13:56 | 33.69053 | 132.44653 | 10889 ft | 348 kts | 232° |
| 2026-05-01 13:57 | 33.67477 | 132.42334 | 10990 ft | 372 kts | 232° |
| 2026-05-01 13:57 | 33.66375 | 132.40714 | 11186 ft | 383 kts | 232° |
| 2026-05-01 13:57 | 33.64072 | 132.37331 | 11873 ft | 395 kts | 232° |
| 2026-05-01 13:57 | 33.62339 | 132.34787 | 12523 ft | 399 kts | 231° |
| 2026-05-01 13:58 | 33.60601 | 132.32239 | 13167 ft | 403 kts | 231° |
| 2026-05-01 13:58 | 33.58819 | 132.29628 | 13826 ft | 406 kts | 231° |
| 2026-05-01 13:58 | 33.57023 | 132.26997 | 14486 ft | 408 kts | 231° |
| 2026-05-01 13:58 | 33.55232 | 132.24379 | 15104 ft | 411 kts | 232° |
| 2026-05-01 13:59 | 33.53412 | 132.21718 | 15723 ft | 413 kts | 232° |
| 2026-05-01 13:59 | 33.51602 | 132.19072 | 16301 ft | 416 kts | 232° |
| 2026-05-01 13:59 | 33.49751 | 132.16370 | 16875 ft | 418 kts | 232° |
| 2026-05-01 13:59 | 33.47918 | 132.13695 | 17415 ft | 420 kts | 232° |
| 2026-05-01 14:00 | 33.46074 | 132.11002 | 17956 ft | 423 kts | 233° |
| 2026-05-01 14:00 | 33.44310 | 132.08174 | 18462 ft | 424 kts | 237° |
| 2026-05-01 14:00 | 33.42646 | 132.05263 | 18966 ft | 426 kts | 237° |
| 2026-05-01 14:00 | 33.40960 | 132.02359 | 19440 ft | 429 kts | 237° |
| 2026-05-01 14:01 | 33.39242 | 131.99440 | 19911 ft | 431 kts | 237° |
| 2026-05-01 14:01 | 33.37527 | 131.96524 | 20357 ft | 433 kts | 237° |
| 2026-05-01 14:01 | 33.35795 | 131.93581 | 20790 ft | 436 kts | 237° |
| 2026-05-01 14:01 | 33.34049 | 131.90616 | 21262 ft | 436 kts | 237° |
| 2026-05-01 14:02 | 33.32315 | 131.87682 | 21857 ft | 430 kts | 237° |
| 2026-05-01 14:02 | 33.30576 | 131.84737 | 21898 ft | 434 kts | 237° |
| 2026-05-01 14:02 | 33.28847 | 131.81810 | 21907 ft | 434 kts | 237° |
| 2026-05-01 14:02 | 33.27135 | 131.78917 | 21913 ft | 431 kts | 237° |
| 2026-05-01 14:03 | 33.25404 | 131.75995 | 21912 ft | 430 kts | 237° |
| 2026-05-01 14:03 | 33.23599 | 131.73151 | 21910 ft | 431 kts | 232° |
| 2026-05-01 14:03 | 33.21543 | 131.70561 | 21911 ft | 434 kts | 226° |
| 2026-05-01 14:03 | 33.19185 | 131.68277 | 21913 ft | 438 kts | 218° |
| 2026-05-01 14:04 | 33.16597 | 131.66327 | 21912 ft | 439 kts | 214° |
| 2026-05-01 14:04 | 33.13998 | 131.64423 | 21910 ft | 439 kts | 215° |
| 2026-05-01 14:04 | 33.11443 | 131.62503 | 21912 ft | 439 kts | 216° |
| 2026-05-01 14:04 | 33.09716 | 131.61204 | 21912 ft | 439 kts | 216° |
| 2026-05-01 14:05 | 33.06289 | 131.58649 | 21912 ft | 439 kts | 215° |
| 2026-05-01 14:05 | 33.03685 | 131.56712 | 21912 ft | 439 kts | 215° |
| 2026-05-01 14:05 | 33.01102 | 131.54794 | 21912 ft | 439 kts | 215° |
| 2026-05-01 14:05 | 32.98528 | 131.52884 | 21911 ft | 439 kts | 215° |
| 2026-05-01 14:06 | 32.95948 | 131.50974 | 21913 ft | 439 kts | 214° |
| 2026-05-01 14:06 | 32.93358 | 131.49059 | 21929 ft | 439 kts | 214° |
| 2026-05-01 14:06 | 32.90765 | 131.47142 | 21945 ft | 439 kts | 214° |
| 2026-05-01 14:06 | 32.88197 | 131.45245 | 21959 ft | 439 kts | 214° |
| 2026-05-01 14:07 | 32.85590 | 131.43324 | 21971 ft | 439 kts | 214° |
| 2026-05-01 14:07 | 32.83004 | 131.41417 | 21982 ft | 439 kts | 214° |
| 2026-05-01 14:07 | 32.80448 | 131.39533 | 21989 ft | 439 kts | 215° |
| 2026-05-01 14:08 | 32.75300 | 131.35675 | 21993 ft | 439 kts | 215° |
| 2026-05-01 14:08 | 32.72732 | 131.33751 | 21993 ft | 439 kts | 214° |
| 2026-05-01 14:08 | 32.70148 | 131.31818 | 21993 ft | 439 kts | 214° |
| 2026-05-01 14:08 | 32.67572 | 131.29892 | 21993 ft | 439 kts | 214° |
| 2026-05-01 14:09 | 32.64998 | 131.27971 | 21993 ft | 439 kts | 214° |
| 2026-05-01 14:09 | 32.62429 | 131.26053 | 21993 ft | 439 kts | 214° |
| 2026-05-01 14:09 | 32.59861 | 131.24138 | 21993 ft | 439 kts | 214° |
| 2026-05-01 14:09 | 32.57276 | 131.22212 | 21993 ft | 439 kts | 214° |
| 2026-05-01 14:10 | 32.54705 | 131.20299 | 21993 ft | 438 kts | 214° |
| 2026-05-01 14:10 | 32.52104 | 131.18364 | 21993 ft | 438 kts | 214° |
| 2026-05-01 14:10 | 32.49597 | 131.16501 | 21993 ft | 438 kts | 214° |
| 2026-05-01 14:10 | 32.46983 | 131.14560 | 21993 ft | 439 kts | 214° |
| 2026-05-01 14:11 | 32.44429 | 131.12665 | 21989 ft | 439 kts | 214° |
| 2026-05-01 14:11 | 32.39250 | 131.08835 | 21692 ft | 442 kts | 214° |
| 2026-05-01 14:11 | 32.36663 | 131.06963 | 21319 ft | 436 kts | 214° |
| 2026-05-01 14:12 | 32.34087 | 131.05106 | 20945 ft | 432 kts | 214° |
| 2026-05-01 14:12 | 32.31530 | 131.03258 | 20569 ft | 429 kts | 214° |
| 2026-05-01 14:12 | 32.29017 | 131.01440 | 20198 ft | 427 kts | 214° |
| 2026-05-01 14:12 | 32.26505 | 130.99625 | 19824 ft | 425 kts | 214° |
| 2026-05-01 14:13 | 32.23981 | 130.97803 | 19364 ft | 420 kts | 214° |
| 2026-05-01 14:13 | 32.22335 | 130.96616 | 19038 ft | 413 kts | 214° |
| 2026-05-01 14:13 | 32.19069 | 130.94260 | 18588 ft | 414 kts | 214° |
| 2026-05-01 14:13 | 32.16608 | 130.92485 | 18285 ft | 414 kts | 213° |
| 2026-05-01 14:14 | 32.14196 | 130.90747 | 18032 ft | 406 kts | 213° |
| 2026-05-01 14:14 | 32.11835 | 130.89047 | 16949 ft | 398 kts | 214° |
| 2026-05-01 14:14 | 32.09502 | 130.87337 | 15382 ft | 398 kts | 214° |
| 2026-05-01 14:14 | 32.07229 | 130.85660 | 14102 ft | 391 kts | 214° |
| 2026-05-01 14:15 | 32.04935 | 130.83977 | 12795 ft | 383 kts | 213° |
| 2026-05-01 14:15 | 32.02773 | 130.82396 | 12335 ft | 355 kts | 213° |
| 2026-05-01 14:15 | 32.00739 | 130.80910 | 11866 ft | 334 kts | 214° |
| 2026-05-01 14:15 | 31.98847 | 130.79524 | 11573 ft | 309 kts | 214° |
| 2026-05-01 14:16 | 31.97092 | 130.78242 | 10932 ft | 287 kts | 214° |
| 2026-05-01 14:16 | 31.95461 | 130.77049 | 10465 ft | 267 kts | 214° |
| 2026-05-01 14:16 | 31.93900 | 130.75906 | 10328 ft | 266 kts | 214° |
| 2026-05-01 14:16 | 31.92375 | 130.74793 | 10140 ft | 249 kts | 214° |
| 2026-05-01 14:17 | 31.90956 | 130.73756 | 10023 ft | 232 kts | 214° |
| 2026-05-01 14:17 | 31.89586 | 130.72754 | 9483 ft | 242 kts | 214° |
| 2026-05-01 14:17 | 31.88139 | 130.71696 | 8256 ft | 258 kts | 214° |
| 2026-05-01 14:17 | 31.86640 | 130.70604 | 7397 ft | 251 kts | 214° |
| 2026-05-01 14:18 | 31.85207 | 130.69562 | 6857 ft | 238 kts | 214° |
| 2026-05-01 14:18 | 31.83812 | 130.68543 | 5861 ft | 245 kts | 214° |
| 2026-05-01 14:18 | 31.82328 | 130.67513 | 4801 ft | 249 kts | 206° |
| 2026-05-01 14:18 | 31.81242 | 130.67184 | 4516 ft | 239 kts | 184° |
| 2026-05-01 14:19 | 31.79196 | 130.67584 | 4212 ft | 209 kts | 174° |
| 2026-05-01 14:19 | 31.77818 | 130.67796 | 3891 ft | 196 kts | 177° |
| 2026-05-01 14:19 | 31.76486 | 130.67992 | 3457 ft | 191 kts | 177° |
| 2026-05-01 14:19 | 31.75186 | 130.68184 | 3090 ft | 188 kts | 177° |
| 2026-05-01 14:20 | 31.73920 | 130.68373 | 2974 ft | 181 kts | 177° |
| 2026-05-01 14:20 | 31.71577 | 130.68721 | 2917 ft | 165 kts | 178° |
| 2026-05-01 14:20 | 31.70357 | 130.68898 | 2883 ft | 179 kts | 177° |
| 2026-05-01 14:21 | 31.69147 | 130.69081 | 2870 ft | 177 kts | 177° |
| 2026-05-01 14:21 | 31.67909 | 130.69266 | 2866 ft | 178 kts | 176° |
| 2026-05-01 14:21 | 31.66765 | 130.69827 | 2855 ft | 186 kts | 137° |
| 2026-05-01 14:22 | 31.65986 | 130.72729 | 2868 ft | 190 kts | 110° |
| 2026-05-01 14:22 | 31.65559 | 130.74184 | 2777 ft | 186 kts | 109° |
| 2026-05-01 14:22 | 31.65447 | 130.75648 | 2738 ft | 180 kts | 77° |
| 2026-05-01 14:22 | 31.65997 | 130.76985 | 2743 ft | 181 kts | 55° |
| 2026-05-01 14:23 | 31.66641 | 130.78255 | 2739 ft | 181 kts | 58° |
| 2026-05-01 14:23 | 31.66974 | 130.78827 | 2730 ft | 180 kts | 45° |
| 2026-05-01 14:23 | 31.67903 | 130.79506 | 2748 ft | 173 kts | 9° |
| 2026-05-01 14:23 | 31.69048 | 130.79381 | 2749 ft | 164 kts | 330° |
| 2026-05-01 14:24 | 31.70072 | 130.78780 | 2755 ft | 165 kts | 331° |
| 2026-05-01 14:24 | 31.71095 | 130.78168 | 2602 ft | 165 kts | 326° |
| 2026-05-01 14:24 | 31.72090 | 130.77508 | 2396 ft | 163 kts | 326° |
| 2026-05-01 14:24 | 31.73067 | 130.76852 | 2199 ft | 157 kts | 326° |
| 2026-05-01 14:25 | 31.73977 | 130.76239 | 1981 ft | 149 kts | 326° |
| 2026-05-01 14:25 | 31.74870 | 130.75636 | 1789 ft | 148 kts | 326° |
| 2026-05-01 14:25 | 31.75761 | 130.75034 | 1594 ft | 147 kts | 326° |
| 2026-05-01 14:25 | 31.76640 | 130.74440 | 1398 ft | 147 kts | 326° |
| 2026-05-01 14:26 | 31.77525 | 130.73842 | 1204 ft | 146 kts | 326° |
| 2026-05-01 14:26 | 31.79232 | 130.72707 | 919 ft | 134 kts | 326° |
| 2026-05-01 14:26 | 31.79936 | 130.72176 | 887 ft | 100 kts | 329° |
| 2026-05-01 14:27 | 31.80351 | 130.71904 | 897 ft | 41 kts | 329° |
| 2026-05-01 14:27 | 31.80493 | 130.71790 | 898 ft | 7 kts | 269° |
| 2026-05-01 14:27 | 31.80468 | 130.71693 | 898 ft | 15 kts | 219° |
| 2026-05-01 14:28 | 31.80318 | 130.71698 | 898 ft | 9 kts | 235° |
| 2026-05-01 14:28 | 31.80272 | 130.71596 | 898 ft | 10 kts | 239° |
| 2026-05-01 14:28 | 31.80266 | 130.71584 | 898 ft | 0 kts | 239° |